Time;durP1;ratioP1;P1;durP2;ratioP2;P2;SDS_P1;SDS_P2;PMS_P1;PMS_P2;Temp;Humidity;BMP_temperature;BMP_pressure;BME280_temperature;BME280_humidity;BME280_pressure;Samples;Min_cycle;Max_cycle;Signal;HPM_P1;HPM_P2
2023/01/01 00:02:21;;;;;;;7.20;4.80;;;;;;;12.37;82.49;99996.79;127220;1295;105750;-75
2023/01/01 00:05:26;;;;;;;7.40;4.80;;;;;;;12.40;82.43;99995.70;126929;1296;105507;-73
2023/01/01 00:08:32;;;;;;;7.90;5.10;;;;;;;12.42;82.38;99991.92;126879;1299;107603;-71
2023/01/01 00:11:37;;;;;;;10.10;4.80;;;;;;;12.43;82.28;99996.66;126808;1294;107559;-72
2023/01/01 00:14:43;;;;;;;6.90;4.70;;;;;;;12.41;82.36;100001.42;126844;1296;107509;-71
2023/01/01 00:17:48;;;;;;;6.80;4.40;;;;;;;12.40;82.30;100001.63;126879;1299;107476;-71
2023/01/01 00:21:03;;;;;;;7.10;4.40;;;;;;;12.38;82.28;99994.52;126898;1296;108284;-73
2023/01/01 00:24:09;;;;;;;6.20;4.20;;;;;;;12.38;82.19;99992.91;126816;1292;107544;-73
2023/01/01 00:27:14;;;;;;;8.80;4.90;;;;;;;12.38;82.27;99993.07;126810;1290;107553;-73
2023/01/01 00:30:20;;;;;;;7.20;4.50;;;;;;;12.38;82.13;99987.02;127060;1295;107389;-74
2023/01/01 00:33:26;;;;;;;5.90;4.10;;;;;;;12.37;82.09;99986.89;127019;1294;106287;-74
2023/01/01 00:36:32;;;;;;;7.30;4.30;;;;;;;12.36;82.08;99987.02;127024;1299;107529;-74
2023/01/01 00:39:37;;;;;;;6.10;4.40;;;;;;;12.34;81.93;99986.92;126815;1299;106489;-74
2023/01/01 00:42:43;;;;;;;6.00;4.10;;;;;;;12.31;82.02;99986.54;126873;1296;107620;-73
2023/01/01 00:45:52;;;;;;;6.40;4.00;;;;;;;12.29;82.02;99985.73;127019;1299;107545;-74
2023/01/01 00:48:58;;;;;;;5.50;3.90;;;;;;;12.29;81.95;99990.63;127090;1299;106360;-73
2023/01/01 00:52:03;;;;;;;6.60;4.60;;;;;;;12.34;81.97;99990.59;127010;1294;108595;-74
2023/01/01 00:55:11;;;;;;;6.10;4.10;;;;;;;12.38;81.94;99989.42;127089;1293;108652;-74
2023/01/01 00:58:17;;;;;;;6.40;4.10;;;;;;;12.39;81.77;99998.29;126911;1292;109096;-73
2023/01/01 01:01:23;;;;;;;6.20;4.00;;;;;;;12.37;81.56;99990.30;126824;1301;107214;-73
2023/01/01 01:04:28;;;;;;;6.10;4.20;;;;;;;12.32;81.51;99991.95;126808;1301;107255;-73
2023/01/01 01:07:38;;;;;;;7.30;4.50;;;;;;;12.26;81.53;99991.19;126747;1302;108072;-74
2023/01/01 01:10:43;;;;;;;6.60;4.10;;;;;;;12.20;81.61;99996.29;126802;1297;107528;-73
2023/01/01 01:13:51;;;;;;;5.60;4.30;;;;;;;12.18;81.51;99997.95;126797;1294;108591;-73
2023/01/01 01:16:57;;;;;;;7.50;4.70;;;;;;;12.18;81.45;99998.79;126812;1294;107239;-73
2023/01/01 01:20:03;;;;;;;6.40;4.50;;;;;;;12.18;81.37;100002.44;126797;1291;107526;-73
2023/01/01 01:23:08;;;;;;;6.10;4.40;;;;;;;12.15;81.44;99999.34;126864;1300;107514;-73
2023/01/01 01:26:16;;;;;;;7.80;4.70;;;;;;;12.12;81.37;99998.77;126787;1304;107530;-73
2023/01/01 01:29:21;;;;;;;7.20;5.00;;;;;;;12.08;81.25;100004.92;126817;1292;107416;-73
2023/01/01 01:32:27;;;;;;;8.50;4.60;;;;;;;12.03;81.28;100011.26;126734;1296;107524;-73
2023/01/01 01:35:33;;;;;;;7.50;4.80;;;;;;;11.98;81.30;100009.81;126786;1294;106618;-73
2023/01/01 01:38:38;;;;;;;7.80;5.30;;;;;;;11.95;81.33;100007.28;126787;1295;107575;-74
2023/01/01 01:41:44;;;;;;;8.70;5.90;;;;;;;11.93;81.25;100005.82;126804;1292;107450;-76
2023/01/01 01:44:58;;;;;;;7.80;5.30;;;;;;;11.94;81.20;100008.09;126790;1296;107447;-73
2023/01/01 01:48:04;;;;;;;9.80;5.70;;;;;;;11.91;81.15;100006.05;126844;1291;107607;-73
2023/01/01 01:51:13;;;;;;;9.00;5.80;;;;;;;11.88;80.99;100006.45;126920;1285;107294;-73
2023/01/01 01:54:22;;;;;;;7.70;5.80;;;;;;;11.83;81.19;100005.32;126875;1293;108555;-74
2023/01/01 01:57:29;;;;;;;8.80;5.80;;;;;;;11.76;81.19;100007.09;126852;1293;107232;-74
2023/01/01 02:00:35;;;;;;;8.40;5.60;;;;;;;11.72;81.11;100009.69;126920;1293;108616;-73
2023/01/01 02:03:46;;;;;;;9.70;6.40;;;;;;;11.71;81.16;100007.36;126918;1292;107485;-74
2023/01/01 02:06:54;;;;;;;9.70;5.90;;;;;;;11.71;81.21;100005.55;126915;1289;106589;-73
2023/01/01 02:10:00;;;;;;;8.00;5.60;;;;;;;11.71;81.30;100008.42;126912;1287;107545;-73
2023/01/01 02:13:05;;;;;;;9.00;5.90;;;;;;;11.70;81.32;100008.52;126926;1293;107647;-75
2023/01/01 02:16:20;;;;;;;9.60;5.70;;;;;;;11.67;81.07;100007.55;126926;1285;107511;-75
2023/01/01 02:19:37;;;;;;;8.10;5.80;;;;;;;11.63;81.03;100012.29;126918;1299;106751;-75
2023/01/01 02:23:15;;;;;;;9.60;5.80;;;;;;;11.58;81.13;100012.48;126851;1293;107504;-74
2023/01/01 02:26:38;;;;;;;8.70;4.60;;;;;;;11.53;81.14;100009.58;126897;1291;106794;-74
2023/01/01 02:29:49;;;;;;;8.50;5.70;;;;;;;11.54;81.15;100005.64;126896;1293;107483;-74
2023/01/01 02:32:58;;;;;;;8.60;5.70;;;;;;;11.56;81.04;100010.02;126992;1292;107447;-73
2023/01/01 02:36:07;;;;;;;6.10;4.80;;;;;;;11.59;81.20;100007.38;126888;1293;107621;-73
2023/01/01 02:39:15;;;;;;;8.50;5.40;;;;;;;11.58;80.92;100000.89;126856;1293;107279;-73
2023/01/01 02:42:23;;;;;;;7.20;5.30;;;;;;;11.56;80.84;99998.55;126857;1299;107446;-73
2023/01/01 02:45:28;;;;;;;7.40;4.80;;;;;;;11.54;80.88;100001.09;126873;1299;107434;-75
2023/01/01 02:48:41;;;;;;;8.80;5.60;;;;;;;11.51;80.84;100001.65;126882;1292;107838;-75
2023/01/01 02:51:59;;;;;;;7.20;4.70;;;;;;;11.47;80.73;100001.05;126867;1290;107487;-76
2023/01/01 02:55:13;;;;;;;6.90;4.60;;;;;;;11.44;80.99;100003.52;126873;1293;106562;-75
2023/01/01 03:02:01;;;;;;;8.20;5.10;;;;;;;11.48;80.90;100000.58;126856;1293;105715;-74
2023/01/01 03:05:15;;;;;;;6.70;4.80;;;;;;;11.51;80.82;99999.45;126917;1293;107345;-74
2023/01/01 03:08:29;;;;;;;7.20;4.80;;;;;;;11.55;80.73;99999.63;126860;1293;106797;-73
2023/01/01 03:11:44;;;;;;;8.10;5.10;;;;;;;11.57;80.65;100000.33;126889;1293;107592;-74
2023/01/01 03:14:57;;;;;;;6.70;5.10;;;;;;;11.58;80.77;100005.34;126755;1292;178804;-74
2023/01/01 03:18:07;;;;;;;6.70;4.50;;;;;;;11.59;80.53;100014.73;126901;1277;107325;-73
2023/01/01 03:21:17;;;;;;;7.00;4.10;;;;;;;11.59;80.43;100013.02;126876;1293;107454;-73
2023/01/01 03:24:29;;;;;;;6.10;4.40;;;;;;;11.62;80.46;100009.52;126983;1293;107403;-74
2023/01/01 03:27:41;;;;;;;6.40;4.70;;;;;;;11.67;80.39;100013.96;126897;1289;107471;-74
2023/01/01 03:30:50;;;;;;;7.90;4.40;;;;;;;11.73;80.16;100016.04;126874;1292;107423;-73
2023/01/01 03:34:02;;;;;;;7.20;4.60;;;;;;;11.75;80.05;100014.20;126898;1293;107700;-74
2023/01/01 03:37:12;;;;;;;6.50;4.70;;;;;;;11.76;80.06;100018.11;126917;1286;107218;-74
2023/01/01 03:40:20;;;;;;;6.30;4.30;;;;;;;11.77;80.04;100023.45;126866;1301;107583;-73
2023/01/01 03:43:34;;;;;;;6.40;4.30;;;;;;;11.77;79.74;100027.90;126916;1293;106526;-74
2023/01/01 03:46:41;;;;;;;5.70;3.70;;;;;;;11.75;79.96;100030.21;126867;1293;107503;-74
2023/01/01 03:49:47;;;;;;;5.00;3.40;;;;;;;11.75;79.69;100035.88;126927;1293;107443;-73
2023/01/01 03:53:03;;;;;;;6.80;3.80;;;;;;;11.80;79.65;100038.13;126907;1292;107594;-74
2023/01/01 03:56:17;;;;;;;4.90;3.70;;;;;;;11.86;79.60;100038.84;126854;1293;107410;-74
2023/01/01 03:59:27;;;;;;;6.30;3.80;;;;;;;11.92;79.60;100036.59;126887;1294;107478;-74
2023/01/01 04:02:41;;;;;;;5.90;3.80;;;;;;;11.95;79.57;100041.23;126903;1293;108644;-74
2023/01/01 04:05:47;;;;;;;6.20;3.80;;;;;;;11.97;79.35;100047.45;126865;1286;106511;-73
2023/01/01 04:08:58;;;;;;;5.50;3.90;;;;;;;11.98;79.19;100049.39;126891;1293;107403;-73
2023/01/01 04:12:05;;;;;;;5.20;3.80;;;;;;;11.96;79.24;100055.67;126905;1293;108765;-73
2023/01/01 04:15:11;;;;;;;5.90;3.80;;;;;;;11.94;79.13;100056.91;126865;1299;107470;-73
2023/01/01 04:18:17;;;;;;;6.10;3.80;;;;;;;11.90;79.26;100057.16;126898;1292;107527;-73
2023/01/01 04:21:22;;;;;;;5.30;3.30;;;;;;;11.90;78.92;100055.58;126789;1302;107613;-74
2023/01/01 04:24:28;;;;;;;5.70;3.40;;;;;;;11.93;78.92;100060.19;126806;1286;107493;-74
2023/01/01 04:27:34;;;;;;;6.70;3.90;;;;;;;11.99;78.95;100061.56;126824;1295;108694;-74
2023/01/01 04:30:40;;;;;;;5.00;3.30;;;;;;;12.06;78.64;100066.81;126799;1294;107689;-72
2023/01/01 04:33:45;;;;;;;4.80;3.40;;;;;;;12.12;78.43;100061.89;126799;1295;107513;-74
2023/01/01 04:36:51;;;;;;;5.00;3.90;;;;;;;12.15;78.35;100063.17;126788;1299;108892;-75
2023/01/01 04:39:57;;;;;;;4.50;3.30;;;;;;;12.16;78.30;100063.73;126774;1293;107249;-74
2023/01/01 04:43:02;;;;;;;6.10;3.80;;;;;;;12.17;78.31;100058.72;126838;1295;107702;-75
2023/01/01 04:46:08;;;;;;;4.70;3.40;;;;;;;12.16;78.08;100056.48;126831;1291;107516;-75
2023/01/01 04:49:14;;;;;;;5.00;3.70;;;;;;;12.14;78.13;100056.73;126826;1295;107484;-74
2023/01/01 04:52:19;;;;;;;5.00;3.20;;;;;;;12.10;78.14;100060.70;126803;1295;107504;-74
2023/01/01 04:55:25;;;;;;;4.90;3.10;;;;;;;12.08;78.06;100066.41;126778;1295;106635;-74
2023/01/01 04:58:31;;;;;;;5.00;3.70;;;;;;;12.09;77.90;100068.68;126808;1285;107467;-75
2023/01/01 05:01:36;;;;;;;5.10;3.30;;;;;;;12.14;77.97;100074.55;126807;1293;107390;-74
2023/01/01 05:04:42;;;;;;;6.60;3.60;;;;;;;12.18;77.57;100074.66;126782;1294;107761;-74
2023/01/01 05:07:47;;;;;;;4.40;3.20;;;;;;;12.21;77.65;100076.54;126795;1294;106603;-74
2023/01/01 05:10:53;;;;;;;6.00;3.70;;;;;;;12.21;77.49;100073.95;126870;1290;107521;-71
2023/01/01 05:14:00;;;;;;;5.40;3.50;;;;;;;12.20;77.38;100069.98;126856;1295;108671;-71
2023/01/01 05:17:05;;;;;;;5.80;3.80;;;;;;;12.18;77.34;100071.05;126832;1295;108476;-72
2023/01/01 05:20:12;;;;;;;5.70;3.80;;;;;;;12.16;77.25;100077.51;126762;1293;107289;-72
2023/01/01 05:23:18;;;;;;;5.70;3.70;;;;;;;12.14;76.93;100074.40;126805;1295;107470;-71
2023/01/01 05:26:27;;;;;;;4.80;3.50;;;;;;;12.13;77.12;100074.27;126839;1295;107542;-71
2023/01/01 05:29:32;;;;;;;5.60;3.70;;;;;;;12.13;76.83;100074.10;126950;1293;107527;-72
2023/01/01 05:32:39;;;;;;;4.20;3.10;;;;;;;12.14;76.97;100078.11;126838;1279;107626;-72
2023/01/01 05:35:44;;;;;;;5.30;3.30;;;;;;;12.19;76.73;100079.88;126806;1293;107280;-72
2023/01/01 05:38:51;;;;;;;4.50;3.60;;;;;;;12.24;76.72;100077.54;126845;1295;107321;-72
2023/01/01 05:41:57;;;;;;;5.40;3.60;;;;;;;12.28;76.38;100086.55;126848;1295;107373;-72
2023/01/01 05:45:02;;;;;;;4.70;3.40;;;;;;;12.30;76.53;100088.91;126830;1294;107565;-72
2023/01/01 05:48:08;;;;;;;5.00;3.40;;;;;;;12.27;76.33;100091.98;126809;1295;107621;-73
2023/01/01 05:51:16;;;;;;;40.50;18.10;;;;;;;12.24;76.25;100093.21;126795;1294;107309;-71
2023/01/01 05:54:21;;;;;;;60.30;23.30;;;;;;;12.20;76.38;100098.70;126850;1299;107493;-71
2023/01/01 05:57:27;;;;;;;51.50;18.80;;;;;;;12.13;76.41;100095.30;126791;1295;108139;-71
2023/01/01 06:00:33;;;;;;;246.90;85.30;;;;;;;12.07;76.31;100101.85;126882;1295;107605;-71
2023/01/01 06:03:39;;;;;;;227.10;86.40;;;;;;;12.02;76.18;100106.56;126864;1289;107535;-71
2023/01/01 06:06:44;;;;;;;134.70;51.30;;;;;;;11.97;76.09;100114.83;126815;1289;107526;-71
2023/01/01 06:09:50;;;;;;;49.70;22.30;;;;;;;11.93;76.21;100118.30;126798;1295;107566;-72
2023/01/01 06:12:57;;;;;;;59.30;31.00;;;;;;;11.89;76.28;100117.15;126767;1295;106645;-74
2023/01/01 06:16:04;;;;;;;33.80;22.60;;;;;;;11.90;76.22;100116.39;126803;1295;107653;-74
2023/01/01 06:19:10;;;;;;;195.70;64.60;;;;;;;11.93;76.24;100118.54;126979;1296;107712;-74
2023/01/01 06:22:15;;;;;;;268.40;72.80;;;;;;;11.97;75.90;100120.79;126812;1295;107894;-74
2023/01/01 06:25:20;;;;;;;385.10;111.20;;;;;;;11.99;75.88;100115.75;126784;1295;107502;-74
2023/01/01 06:28:26;;;;;;;411.00;116.50;;;;;;;12.00;75.90;100119.73;126797;1296;107630;-71
2023/01/01 06:31:32;;;;;;;309.30;86.90;;;;;;;11.98;75.80;100118.33;126803;1295;105642;-72
2023/01/01 06:34:37;;;;;;;556.00;179.80;;;;;;;11.96;75.52;100124.13;126829;1295;107433;-71
2023/01/01 06:37:43;;;;;;;778.90;286.30;;;;;;;11.92;75.60;100121.69;126767;1291;107545;-72
2023/01/01 06:40:58;;;;;;;205.50;61.20;;;;;;;11.89;75.57;100121.66;126782;1295;107545;-71
2023/01/01 06:44:04;;;;;;;238.10;70.60;;;;;;;11.85;75.53;100126.98;126820;1295;107453;-71
2023/01/01 06:47:10;;;;;;;711.40;353.60;;;;;;;11.83;75.53;100134.71;126870;1285;108535;-71
2023/01/01 06:50:15;;;;;;;165.50;63.30;;;;;;;11.81;75.52;100139.08;126816;1278;107357;-71
2023/01/01 06:53:25;;;;;;;496.30;182.90;;;;;;;11.79;75.22;100141.58;126743;1277;108750;-71
2023/01/01 06:56:32;;;;;;;431.10;183.60;;;;;;;11.82;75.37;100147.64;126838;1277;107583;-71
2023/01/01 06:59:37;;;;;;;130.70;58.30;;;;;;;11.89;75.09;100149.47;126631;1285;107239;-71
2023/01/01 07:02:43;;;;;;;160.60;79.10;;;;;;;11.95;74.98;100149.83;126774;1278;107511;-71
2023/01/01 07:05:48;;;;;;;46.60;26.50;;;;;;;12.02;74.74;100155.53;126829;1295;107419;-74
2023/01/01 07:08:55;;;;;;;15.40;9.40;;;;;;;12.07;74.48;100159.44;126860;1295;106902;-73
2023/01/01 07:12:00;;;;;;;11.30;5.40;;;;;;;12.11;74.63;100163.99;126872;1285;107437;-71
2023/01/01 07:15:08;;;;;;;7.90;4.20;;;;;;;12.13;74.41;100171.24;126957;1293;107988;-73
2023/01/01 07:18:13;;;;;;;7.80;3.60;;;;;;;12.16;74.16;100175.09;127196;1292;106693;-74
2023/01/01 07:21:28;;;;;;;81.40;38.80;;;;;;;12.17;74.00;100178.15;127132;1293;105528;-74
2023/01/01 07:24:34;;;;;;;109.40;48.10;;;;;;;12.21;74.00;100179.33;126917;1293;107511;-73
2023/01/01 07:27:39;;;;;;;265.60;101.60;;;;;;;12.24;73.68;100184.44;127049;1300;107642;-73
2023/01/01 07:30:44;;;;;;;182.60;62.70;;;;;;;12.28;73.53;100191.50;127037;1301;107558;-73
2023/01/01 07:33:50;;;;;;;398.00;147.50;;;;;;;12.31;73.58;100200.06;126884;1279;107699;-74
2023/01/01 07:36:56;;;;;;;116.40;42.50;;;;;;;12.33;73.56;100201.55;127070;1292;107495;-73
2023/01/01 07:40:01;;;;;;;266.20;92.70;;;;;;;12.35;73.08;100202.04;127083;1295;107354;-74
2023/01/01 07:43:07;;;;;;;319.10;112.20;;;;;;;12.39;73.11;100205.42;126984;1295;107514;-74
2023/01/01 07:46:15;;;;;;;221.50;82.20;;;;;;;12.42;73.09;100207.20;126919;1295;107136;-72
2023/01/01 07:49:20;;;;;;;168.70;63.90;;;;;;;12.44;73.02;100221.25;127049;1294;108715;-73
2023/01/01 07:52:26;;;;;;;437.00;171.90;;;;;;;12.46;72.87;100226.01;126955;1285;107513;-72
2023/01/01 07:55:34;;;;;;;501.10;264.00;;;;;;;12.50;72.66;100219.88;127081;1295;108621;-72
2023/01/01 07:58:41;;;;;;;214.60;95.40;;;;;;;12.54;72.61;100224.83;127142;1294;108612;-72
2023/01/01 08:01:47;;;;;;;112.80;53.40;;;;;;;12.59;72.48;100224.33;127122;1285;107454;-71
2023/01/01 08:04:52;;;;;;;143.60;80.00;;;;;;;12.65;71.95;100226.54;127178;1295;106250;-74
2023/01/01 08:07:58;;;;;;;154.20;94.40;;;;;;;12.72;72.08;100231.83;126889;1293;107494;-74
2023/01/01 08:11:04;;;;;;;34.10;19.70;;;;;;;12.78;72.20;100234.17;126890;1294;107572;-74
2023/01/01 08:14:10;;;;;;;35.30;21.00;;;;;;;12.83;71.77;100240.09;126951;1293;105945;-75
2023/01/01 08:17:15;;;;;;;18.50;13.20;;;;;;;12.87;71.85;100236.98;127062;1293;105626;-75
2023/01/01 08:20:21;;;;;;;13.70;9.90;;;;;;;12.93;71.45;100242.92;126968;1293;107949;-75
2023/01/01 08:23:27;;;;;;;10.20;5.80;;;;;;;13.01;71.40;100254.38;126956;1295;108665;-74
2023/01/01 08:26:35;;;;;;;8.30;5.10;;;;;;;13.06;71.44;100255.55;127033;1278;107218;-74
2023/01/01 08:29:41;;;;;;;12.00;5.90;;;;;;;13.13;70.86;100260.52;127080;1293;107494;-74
2023/01/01 08:32:48;;;;;;;108.10;56.90;;;;;;;13.21;70.95;100259.64;127032;1279;108633;-74
2023/01/01 08:35:54;;;;;;;144.40;76.90;;;;;;;13.28;70.92;100262.66;126769;1299;107497;-74
2023/01/01 08:38:59;;;;;;;96.40;53.50;;;;;;;13.34;70.54;100261.13;126800;1293;106597;-74
2023/01/01 08:42:05;;;;;;;75.60;47.10;;;;;;;13.39;70.66;100270.90;126852;1285;107349;-74
2023/01/01 08:45:12;;;;;;;63.30;43.80;;;;;;;13.45;70.76;100277.98;126779;1294;107522;-74
2023/01/01 08:48:17;;;;;;;33.70;22.40;;;;;;;13.50;70.60;100285.58;126818;1285;106735;-73
2023/01/01 08:51:23;;;;;;;14.00;6.90;;;;;;;13.56;70.39;100293.91;126791;1295;107531;-74
2023/01/01 08:54:28;;;;;;;9.40;4.00;;;;;;;13.61;70.27;100298.29;126813;1295;107560;-75
2023/01/01 08:57:34;;;;;;;7.00;3.70;;;;;;;13.68;69.79;100299.84;126851;1285;107113;-74
2023/01/01 09:00:39;;;;;;;7.00;3.30;;;;;;;13.75;69.83;100299.29;126858;1293;107480;-74
2023/01/01 09:03:45;;;;;;;5.60;3.00;;;;;;;13.81;69.66;100295.20;127101;1295;107531;-74
2023/01/01 09:06:50;;;;;;;5.00;3.30;;;;;;;13.87;69.78;100296.86;127078;1295;106659;-74
2023/01/01 09:09:56;;;;;;;8.40;3.70;;;;;;;13.92;69.81;100299.48;127107;1294;107502;-74
2023/01/01 09:13:01;;;;;;;8.00;3.50;;;;;;;13.97;69.67;100303.71;127070;1295;106684;-75
2023/01/01 09:16:08;;;;;;;5.00;3.10;;;;;;;14.03;69.42;100299.24;126850;1295;105565;-74
2023/01/01 09:19:14;;;;;;;7.40;3.40;;;;;;;14.08;69.52;100300.29;127001;1287;106791;-74
2023/01/01 09:22:20;;;;;;;5.80;2.90;;;;;;;14.13;69.60;100293.32;126887;1291;107331;-74
2023/01/01 09:25:26;;;;;;;8.40;3.90;;;;;;;14.20;69.30;100296.01;126835;1295;107731;-73
2023/01/01 09:28:32;;;;;;;29.40;15.50;;;;;;;14.28;69.00;100297.03;126802;1295;107415;-75
2023/01/01 09:31:37;;;;;;;15.40;7.20;;;;;;;14.36;69.20;100301.42;126789;1295;107380;-74
2023/01/01 09:34:43;;;;;;;47.80;22.20;;;;;;;14.44;68.92;100300.13;126822;1295;106808;-74
2023/01/01 09:37:49;;;;;;;190.40;78.20;;;;;;;14.53;68.43;100297.33;126835;1295;105717;-74
2023/01/01 09:41:03;;;;;;;109.90;43.50;;;;;;;14.62;68.71;100300.25;126841;1295;107456;-74
2023/01/01 09:44:25;;;;;;;400.80;169.90;;;;;;;14.69;67.98;100305.95;126839;1295;107370;-74
2023/01/01 09:47:34;;;;;;;122.20;49.70;;;;;;;14.76;67.62;100310.82;126812;1293;108321;-74
2023/01/01 09:50:43;;;;;;;67.00;28.70;;;;;;;14.84;67.18;100310.94;126799;1286;107515;-73
2023/01/01 09:53:55;;;;;;;120.50;49.90;;;;;;;14.94;67.32;100309.09;126889;1295;107519;-74
2023/01/01 09:57:02;;;;;;;96.90;39.40;;;;;;;15.01;67.70;100303.74;126802;1292;107761;-74
2023/01/01 10:00:16;;;;;;;134.50;50.10;;;;;;;15.05;67.37;100305.25;126861;1295;108000;-74
2023/01/01 10:03:33;;;;;;;176.70;70.50;;;;;;;15.08;67.27;100304.19;126646;1295;107251;-74
2023/01/01 10:06:44;;;;;;;175.60;84.00;;;;;;;15.12;66.78;100296.94;126714;1294;108567;-74
2023/01/01 10:09:59;;;;;;;111.50;61.10;;;;;;;15.17;66.84;100303.21;126697;1294;107776;-73
2023/01/01 10:13:18;;;;;;;113.30;62.80;;;;;;;15.20;66.51;100294.54;126721;1294;107246;-74
2023/01/01 10:16:33;;;;;;;160.80;84.70;;;;;;;15.24;66.67;100284.42;126704;1287;106465;-74
2023/01/01 10:19:43;;;;;;;104.00;53.60;;;;;;;15.27;66.49;100280.27;126760;1295;107229;-74
2023/01/01 10:22:53;;;;;;;69.30;35.60;;;;;;;15.32;65.96;100276.95;126710;1294;107648;-74
2023/01/01 10:26:08;;;;;;;30.10;16.20;;;;;;;15.38;66.39;100268.84;126736;1294;107260;-74
2023/01/01 10:29:21;;;;;;;20.30;13.30;;;;;;;15.39;66.16;100267.55;126712;1295;107545;-74
2023/01/01 10:32:31;;;;;;;10.40;7.50;;;;;;;15.40;65.85;100271.56;126763;1295;106396;-74
2023/01/01 10:35:39;;;;;;;9.80;3.70;;;;;;;15.42;65.98;100270.44;126880;1294;107414;-75
2023/01/01 10:38:45;;;;;;;6.30;3.40;;;;;;;15.44;65.83;100266.04;127024;1295;107411;-76
2023/01/01 10:41:52;;;;;;;7.30;3.10;;;;;;;15.47;65.36;100270.31;127049;1294;107462;-76
2023/01/01 10:44:58;;;;;;;5.90;2.70;;;;;;;15.52;65.17;100267.47;126836;1286;108853;-76
2023/01/01 10:48:17;;;;;;;26.40;15.30;;;;;;;15.56;65.58;100265.95;126746;1295;107230;-76
2023/01/01 10:51:25;;;;;;;9.80;5.70;;;;;;;15.56;65.64;100268.03;126747;1295;107594;-76
2023/01/01 10:54:36;;;;;;;11.80;5.20;;;;;;;15.57;65.70;100262.91;126744;1294;107432;-76
2023/01/01 10:57:42;;;;;;;10.00;5.90;;;;;;;15.58;65.46;100262.09;126740;1289;107921;-75
2023/01/01 11:00:59;;;;;;;5.70;3.40;;;;;;;15.61;65.55;100260.85;126801;1295;107518;-76
2023/01/01 11:04:22;;;;;;;5.40;3.30;;;;;;;15.63;65.48;100254.67;127179;1287;107280;-76
2023/01/01 11:07:35;;;;;;;7.00;3.00;;;;;;;15.64;65.37;100250.89;127348;1279;106906;-79
2023/01/01 11:10:49;;;;;;;5.90;3.20;;;;;;;15.67;65.05;100251.76;126923;1285;107422;-76
2023/01/01 11:13:58;;;;;;;6.70;3.00;;;;;;;15.70;65.48;100246.34;127131;1295;107524;-77
2023/01/01 11:17:05;;;;;;;5.30;3.10;;;;;;;15.74;65.39;100249.80;127050;1303;109227;-76
2023/01/01 11:20:20;;;;;;;5.00;2.80;;;;;;;15.75;65.07;100246.25;126900;1285;107446;-75
2023/01/01 11:23:33;;;;;;;10.20;4.30;;;;;;;15.74;65.03;100243.84;127059;1285;107401;-76
2023/01/01 11:26:40;;;;;;;8.00;3.50;;;;;;;15.70;64.96;100240.45;126932;1285;107517;-77
2023/01/01 11:29:50;;;;;;;5.80;2.90;;;;;;;15.66;65.31;100244.24;126782;1288;107755;-75
2023/01/01 11:33:01;;;;;;;7.40;3.20;;;;;;;15.58;64.93;100237.27;126876;1288;106488;-77
2023/01/01 11:36:08;;;;;;;7.30;3.80;;;;;;;15.50;65.34;100241.67;126930;1278;107509;-75
2023/01/01 11:39:25;;;;;;;7.10;3.90;;;;;;;15.45;65.58;100245.89;127793;1279;107348;-76
2023/01/01 11:42:33;;;;;;;6.40;3.60;;;;;;;15.41;65.22;100249.64;127131;1294;107292;-75
2023/01/01 11:45:43;;;;;;;7.60;3.60;;;;;;;15.39;65.41;100244.95;127160;1293;107317;-75
2023/01/01 11:48:49;;;;;;;7.20;3.40;;;;;;;15.38;65.18;100239.06;127132;1294;105448;-75
2023/01/01 11:51:55;;;;;;;7.30;3.70;;;;;;;15.35;65.01;100241.95;126938;1285;107428;-74
2023/01/01 11:55:11;;;;;;;8.40;3.40;;;;;;;15.30;65.08;100238.16;127222;1285;107664;-74
2023/01/01 11:58:23;;;;;;;8.90;3.70;;;;;;;15.27;65.19;100235.31;127123;1295;107279;-76
2023/01/01 12:01:36;;;;;;;6.20;3.40;;;;;;;15.27;65.15;100230.27;127117;1294;107430;-76
2023/01/01 12:04:48;;;;;;;5.20;3.00;;;;;;;15.27;64.76;100231.66;126943;1293;107267;-73
2023/01/01 12:07:58;;;;;;;5.60;3.10;;;;;;;15.28;64.90;100235.45;127045;1294;107486;-78
2023/01/01 12:11:11;;;;;;;6.80;3.30;;;;;;;15.36;64.91;100232.39;126905;1285;106429;-74
2023/01/01 12:14:23;;;;;;;6.00;3.20;;;;;;;15.44;65.05;100219.99;126841;1295;107571;-72
2023/01/01 12:17:33;;;;;;;7.30;3.40;;;;;;;15.51;64.71;100218.60;126815;1286;107373;-74
2023/01/01 12:20:45;;;;;;;9.30;3.70;;;;;;;15.60;64.55;100223.02;126850;1293;106538;-75
2023/01/01 12:23:51;;;;;;;5.80;3.70;;;;;;;15.69;64.10;100230.38;126899;1291;107469;-75
2023/01/01 12:27:13;;;;;;;7.80;3.90;;;;;;;15.75;64.01;100232.09;126916;1285;107513;-74
2023/01/01 12:30:24;;;;;;;5.20;3.20;;;;;;;15.77;64.07;100238.59;126861;1295;107340;-73
2023/01/01 12:33:48;;;;;;;7.30;3.20;;;;;;;15.78;63.85;100248.16;126875;1294;107369;-71
2023/01/01 12:37:02;;;;;;;4.90;3.10;;;;;;;15.80;63.62;100252.11;126871;1295;107481;-72
2023/01/01 12:40:38;;;;;;;7.70;3.20;;;;;;;15.81;63.32;100256.98;126890;1285;107369;-71
2023/01/01 12:43:55;;;;;;;6.20;3.30;;;;;;;15.85;63.24;100265.67;126889;1287;107546;-77
2023/01/01 12:47:05;;;;;;;8.20;2.90;;;;;;;15.86;62.78;100267.48;126855;1295;107482;-77
2023/01/01 12:50:19;;;;;;;9.80;6.10;;;;;;;15.86;63.19;100271.08;126933;1294;107525;-73
2023/01/01 12:53:34;;;;;;;15.00;9.90;;;;;;;15.83;62.82;100270.54;126937;1295;108562;-74
2023/01/01 12:56:47;;;;;;;10.40;5.90;;;;;;;15.80;62.66;100269.66;126791;1295;107532;-74
2023/01/01 12:59:55;;;;;;;15.30;13.60;;;;;;;15.77;63.06;100275.21;126807;1293;107508;-73
2023/01/01 13:03:06;;;;;;;5.80;4.50;;;;;;;15.75;62.95;100277.66;126825;1293;108576;-74
2023/01/01 13:06:15;;;;;;;47.40;27.70;;;;;;;15.71;63.00;100274.95;126853;1294;107497;-75
2023/01/01 13:09:23;;;;;;;89.40;60.30;;;;;;;15.70;62.87;100280.17;126945;1295;107359;-73
2023/01/01 13:12:31;;;;;;;422.20;376.40;;;;;;;15.68;62.83;100280.57;126901;1295;107512;-73
2023/01/01 13:15:45;;;;;;;501.90;372.40;;;;;;;15.65;62.87;100275.11;126928;1293;105643;-74
2023/01/01 13:18:51;;;;;;;136.10;91.20;;;;;;;15.62;62.96;100276.64;127013;1293;106955;-79
2023/01/01 13:21:57;;;;;;;80.70;62.50;;;;;;;15.57;62.97;100272.39;126897;1300;107216;-77
2023/01/01 13:25:18;;;;;;;35.00;26.30;;;;;;;15.51;63.00;100264.45;127034;1293;106540;-77
2023/01/01 13:28:23;;;;;;;19.30;14.70;;;;;;;15.45;62.75;100256.99;127278;1286;107493;-76
2023/01/01 13:32:01;;;;;;;10.60;7.50;;;;;;;15.38;62.86;100256.02;127314;1286;107266;-76
2023/01/01 13:35:17;;;;;;;37.60;32.30;;;;;;;15.30;62.75;100259.06;127198;1293;108756;-76
2023/01/01 13:38:46;;;;;;;15.30;10.80;;;;;;;15.24;62.78;100268.46;127229;1293;107443;-76
2023/01/01 13:41:52;;;;;;;22.10;15.90;;;;;;;15.17;62.64;100280.93;127063;1293;107553;-79
2023/01/01 13:44:57;;;;;;;13.60;12.20;;;;;;;15.11;62.77;100297.09;127048;1291;107456;-76
2023/01/01 13:48:24;;;;;;;9.90;8.30;;;;;;;15.04;62.75;100308.23;127088;1295;108732;-76
2023/01/01 13:51:56;;;;;;;7.30;5.60;;;;;;;14.96;62.83;100314.73;127114;1295;108639;-77
2023/01/01 13:55:34;;;;;;;6.10;4.50;;;;;;;14.87;62.84;100313.22;126756;1285;107343;-76
2023/01/01 13:59:06;;;;;;;6.70;4.20;;;;;;;14.79;63.25;100318.17;126980;1295;107476;-76
2023/01/01 14:02:22;;;;;;;6.50;4.10;;;;;;;14.71;63.08;100326.41;127079;1294;107279;-76
2023/01/01 14:05:33;;;;;;;6.20;4.00;;;;;;;14.63;63.21;100332.90;126788;1294;108642;-75
2023/01/01 14:08:40;;;;;;;8.30;4.80;;;;;;;14.54;63.25;100340.35;126892;1294;108563;-77
2023/01/01 14:11:45;;;;;;;121.10;102.50;;;;;;;14.45;63.36;100350.13;126816;1284;107611;-77
2023/01/01 14:14:51;;;;;;;77.80;69.60;;;;;;;14.37;63.36;100351.77;126807;1293;107681;-77